Time;durP1;ratioP1;P1;durP2;ratioP2;P2;SDS_P1;SDS_P2;PMS_P1;PMS_P2;Temp;Humidity;BMP_temperature;BMP_pressure;BME280_temperature;BME280_humidity;BME280_pressure;Samples;Min_cycle;Max_cycle;Signal;HPM_P1;HPM_P2
2021/06/11 17:45:35;;;;;;;3.53;2.58;;;;;;;;;;5025112;28;20132;-75
2021/06/11 17:48:03;;;;;;;3.35;2.50;;;;;;;;;;5031055;28;20064;-74
2021/06/11 17:50:30;;;;;;;3.30;2.80;;;;;;;;;;5031556;28;20799;-75
2021/06/11 17:53:13;;;;;;;4.78;2.80;;;;;;;;;;5030501;28;20765;-75
2021/06/11 17:55:46;;;;;;;4.05;2.90;;;;;;;;;;5034929;28;20437;-75
2021/06/11 17:58:13;;;;;;;3.92;2.60;;;;;;;;;;5032864;28;21262;-75
2021/06/11 18:00:40;;;;;;;4.15;3.17;;;;;;;;;;5022082;28;20060;-76
2021/06/11 18:03:23;;;;;;;4.10;2.90;;;;;;;;;;5011929;28;20062;-77
2021/06/11 18:05:50;;;;;;;5.40;2.83;;;;;;;;;;5005361;28;20062;-74
2021/06/11 18:08:21;;;;;;;4.40;2.80;;;;;;;;;;4962715;28;20451;-75
2021/06/11 18:21:48;;;;;;;7.80;2.97;;;;;;;;;;4994493;28;21474;-75
2021/06/11 18:24:17;;;;;;;3.42;2.60;;;;;;;;;;4981027;28;20058;-77
2021/06/11 18:26:54;;;;;;;5.10;2.92;;;;;;;;;;4981739;28;20459;-77
2021/06/11 18:29:31;;;;;;;5.15;2.90;;;;;;;;;;4970734;28;20433;-76
2021/06/11 18:31:57;;;;;;;3.90;2.67;;;;;;;;;;4988518;28;20520;-76
2021/06/11 18:34:23;;;;;;;4.43;2.60;;;;;;;;;;4983088;28;20069;-78
2021/06/11 18:36:50;;;;;;;3.95;2.70;;;;;;;;;;4976684;28;20151;-77
2021/06/11 18:39:23;;;;;;;4.00;2.85;;;;;;;;;;4981964;28;20066;-77
2021/06/11 18:41:50;;;;;;;3.35;2.67;;;;;;;;;;4981905;28;20057;-76
2021/06/11 18:44:31;;;;;;;5.03;2.95;;;;;;;;;;4983368;28;20091;-75
2021/06/11 18:46:58;;;;;;;3.38;2.90;;;;;;;;;;4970295;28;20066;-76
2021/06/11 18:49:26;;;;;;;3.95;2.40;;;;;;;;;;4982009;28;20058;-75
2021/06/11 18:51:53;;;;;;;5.50;3.17;;;;;;;;;;4980060;28;20062;-76
2021/06/11 18:54:21;;;;;;;4.10;2.88;;;;;;;;;;4983327;28;20030;-77
2021/06/11 18:56:49;;;;;;;3.53;2.63;;;;;;;;;;4980105;28;20117;-76
2021/06/11 18:59:21;;;;;;;3.45;2.85;;;;;;;;;;4983421;28;20109;-76
2021/06/11 19:01:49;;;;;;;2.67;2.42;;;;;;;;;;4976182;28;20046;-75
2021/06/11 19:04:17;;;;;;;6.20;3.00;;;;;;;;;;4980362;28;20066;-80
2021/06/11 19:06:53;;;;;;;3.20;2.80;;;;;;;;;;4982969;28;20075;-83
2021/06/11 19:09:20;;;;;;;3.28;2.90;;;;;;;;;;4982845;28;20400;-84
2021/06/11 19:11:50;;;;;;;9.20;2.92;;;;;;;;;;4978780;28;20398;-81
2021/06/11 19:14:16;;;;;;;4.47;2.70;;;;;;;;;;4964017;28;20145;-81
2021/06/11 19:16:45;;;;;;;3.90;2.80;;;;;;;;;;4971692;28;20102;-80
2021/06/11 19:19:16;;;;;;;4.43;2.60;;;;;;;;;;4964232;28;20504;-81
2021/06/11 19:21:54;;;;;;;3.22;2.67;;;;;;;;;;4966071;28;20626;-77
2021/06/11 19:24:22;;;;;;;4.43;3.45;;;;;;;;;;4946067;28;20048;-77
2021/06/11 19:26:49;;;;;;;5.20;3.42;;;;;;;;;;4951138;28;20035;-78
2021/06/11 19:29:30;;;;;;;4.57;3.15;;;;;;;;;;4954760;28;20633;-77
2021/06/11 19:31:57;;;;;;;3.80;3.40;;;;;;;;;;4948095;28;20066;-78
2021/06/11 19:34:24;;;;;;;8.48;3.65;;;;;;;;;;4951599;28;20062;-81
2021/06/11 19:36:52;;;;;;;5.55;3.90;;;;;;;;;;4948226;28;20063;-76
2021/06/11 19:39:19;;;;;;;4.57;3.80;;;;;;;;;;4946214;28;20201;-76
2021/06/11 19:41:47;;;;;;;6.97;3.45;;;;;;;;;;4948434;28;20062;-87
2021/06/11 19:44:14;;;;;;;4.65;2.90;;;;;;;;;;4955241;28;20047;-88
2021/06/11 19:46:41;;;;;;;5.43;3.25;;;;;;;;;;4953013;28;20210;-88
2021/06/11 19:49:11;;;;;;;5.40;2.97;;;;;;;;;;4950940;28;20051;-89
2021/06/11 19:51:38;;;;;;;6.35;3.72;;;;;;;;;;4951821;28;20081;-88
2021/06/11 19:54:15;;;;;;;4.82;3.20;;;;;;;;;;4952365;28;20054;-88
2021/06/11 19:56:41;;;;;;;6.20;2.72;;;;;;;;;;4951947;28;20047;-87
2021/06/11 19:59:17;;;;;;;3.33;3.03;;;;;;;;;;4951193;28;20102;-87
2021/06/11 20:01:45;;;;;;;5.80;2.83;;;;;;;;;;4951136;28;20035;-86
2021/06/11 20:04:14;;;;;;;4.07;2.70;;;;;;;;;;4951733;28;20068;-87
2021/06/11 20:06:41;;;;;;;3.92;2.75;;;;;;;;;;4949688;28;20440;-87
2021/06/11 20:09:08;;;;;;;4.80;2.83;;;;;;;;;;4938792;28;20091;-87
2021/06/11 20:11:36;;;;;;;5.15;2.78;;;;;;;;;;4967097;28;20082;-86
2021/06/11 20:14:03;;;;;;;3.60;2.80;;;;;;;;;;4948151;28;20039;-87
2021/06/11 20:16:30;;;;;;;3.90;2.90;;;;;;;;;;4944595;28;20067;-90
2021/06/11 20:18:57;;;;;;;4.88;3.05;;;;;;;;;;4919636;28;20102;-89
2021/06/11 20:21:24;;;;;;;4.57;3.10;;;;;;;;;;4921701;28;20055;-88
2021/06/11 20:23:51;;;;;;;3.53;2.90;;;;;;;;;;4945055;28;20511;-87
2021/06/11 20:26:20;;;;;;;4.15;3.10;;;;;;;;;;4954089;28;20063;-87
2021/06/11 20:28:46;;;;;;;4.30;2.92;;;;;;;;;;4950844;28;20077;-86
2021/06/11 20:31:14;;;;;;;4.40;3.05;;;;;;;;;;4956470;28;20071;-85
2021/06/11 20:33:41;;;;;;;4.15;3.20;;;;;;;;;;4948395;28;20518;-85
2021/06/11 20:36:10;;;;;;;3.80;2.80;;;;;;;;;;4947029;28;20098;-88
2021/06/11 20:38:37;;;;;;;4.68;2.90;;;;;;;;;;4958655;28;20059;-86
2021/06/11 20:41:04;;;;;;;3.05;2.50;;;;;;;;;;4942393;28;20106;-86
2021/06/11 20:43:37;;;;;;;5.13;2.95;;;;;;;;;;4910018;28;20034;-91
2021/06/11 20:46:05;;;;;;;5.03;2.97;;;;;;;;;;4910995;28;20400;-86
2021/06/11 20:48:31;;;;;;;3.78;2.85;;;;;;;;;;4939834;28;20071;-86
2021/06/11 20:51:00;;;;;;;7.45;2.95;;;;;;;;;;4939848;28;20031;-87
2021/06/11 20:53:29;;;;;;;5.55;2.95;;;;;;;;;;4955109;28;20043;-87
2021/06/11 20:55:56;;;;;;;3.42;2.88;;;;;;;;;;4936411;28;20027;-85
2021/06/11 20:58:24;;;;;;;3.75;3.30;;;;;;;;;;4940153;28;20045;-87
2021/06/11 21:00:53;;;;;;;3.95;2.95;;;;;;;;;;4930393;28;20122;-86
2021/06/11 21:03:20;;;;;;;3.60;2.72;;;;;;;;;;4939387;28;20038;-89
2021/06/11 21:05:48;;;;;;;4.53;2.95;;;;;;;;;;4929306;28;20034;-86
2021/06/11 21:08:17;;;;;;;4.22;2.80;;;;;;;;;;4945352;28;20040;-90
2021/06/11 21:10:55;;;;;;;3.13;2.83;;;;;;;;;;4937469;28;20035;-90
2021/06/11 21:13:22;;;;;;;5.93;3.22;;;;;;;;;;4923530;28;20039;-85
2021/06/11 21:15:50;;;;;;;5.15;3.30;;;;;;;;;;4937082;28;20023;-88
2021/06/11 21:18:27;;;;;;;4.68;3.00;;;;;;;;;;4925085;28;20043;-88
2021/06/11 21:20:58;;;;;;;3.60;3.00;;;;;;;;;;4966534;28;20042;-88
2021/06/11 21:23:36;;;;;;;3.80;3.13;;;;;;;;;;4936252;28;20043;-86
2021/06/11 21:26:03;;;;;;;4.07;2.83;;;;;;;;;;4941721;28;20041;-85
2021/06/11 21:28:30;;;;;;;4.15;2.92;;;;;;;;;;4955266;28;20058;-85
2021/06/11 21:30:56;;;;;;;6.13;2.83;;;;;;;;;;4948766;28;20062;-86
2021/06/11 21:33:23;;;;;;;4.57;2.97;;;;;;;;;;4954752;28;20043;-84
2021/06/11 21:35:49;;;;;;;4.47;2.67;;;;;;;;;;4950038;28;20097;-89
2021/06/11 21:38:19;;;;;;;4.57;2.75;;;;;;;;;;4933189;28;20102;-83
2021/06/11 21:40:45;;;;;;;4.75;2.55;;;;;;;;;;4955414;28;20046;-81
2021/06/11 21:43:12;;;;;;;4.97;3.00;;;;;;;;;;4930986;28;20042;-81
2021/06/11 21:45:41;;;;;;;3.15;2.40;;;;;;;;;;4925614;28;20038;-81
2021/06/11 21:48:08;;;;;;;5.10;2.47;;;;;;;;;;4942667;28;20050;-83
2021/06/11 21:50:34;;;;;;;4.97;2.63;;;;;;;;;;4946495;28;20082;-80
2021/06/11 21:53:01;;;;;;;5.28;3.10;;;;;;;;;;4945613;28;20104;-81
2021/06/11 21:55:27;;;;;;;3.67;2.75;;;;;;;;;;4952830;28;20099;-80
2021/06/11 21:57:53;;;;;;;3.95;3.05;;;;;;;;;;4948150;28;20035;-80
2021/06/11 22:00:39;;;;;;;5.07;3.10;;;;;;;;;;4950685;28;20035;-80
2021/06/11 22:03:05;;;;;;;6.60;3.35;;;;;;;;;;4948433;28;20058;-81
2021/06/11 22:05:32;;;;;;;3.70;2.88;;;;;;;;;;4954438;28;20601;-81
2021/06/11 22:07:59;;;;;;;4.57;3.00;;;;;;;;;;4943704;28;20086;-82
2021/06/11 22:10:27;;;;;;;5.18;2.90;;;;;;;;;;4951336;28;20075;-83
2021/06/11 22:12:53;;;;;;;4.43;2.95;;;;;;;;;;4927843;28;20074;-82
2021/06/11 22:15:20;;;;;;;5.35;2.90;;;;;;;;;;4924239;28;20032;-82
2021/06/11 22:17:47;;;;;;;4.90;3.00;;;;;;;;;;4909809;29;20035;-81
2021/06/11 22:20:14;;;;;;;4.00;2.55;;;;;;;;;;4934999;28;20118;-82
2021/06/11 22:22:41;;;;;;;4.15;2.80;;;;;;;;;;4932049;28;20047;-83
2021/06/11 22:25:10;;;;;;;3.90;2.60;;;;;;;;;;4944314;28;20138;-80
2021/06/11 22:27:37;;;;;;;3.25;2.33;;;;;;;;;;4947316;28;20065;-81
2021/06/11 22:30:05;;;;;;;4.38;2.60;;;;;;;;;;4948909;28;20082;-81
2021/06/11 22:32:31;;;;;;;4.72;2.70;;;;;;;;;;4953759;28;20087;-81
2021/06/11 22:34:57;;;;;;;3.65;2.80;;;;;;;;;;4946312;28;20118;-82
2021/06/11 22:37:24;;;;;;;3.45;2.75;;;;;;;;;;4947124;28;20149;-82
2021/06/11 22:39:51;;;;;;;3.72;2.70;;;;;;;;;;4948324;28;20063;-81
2021/06/11 22:42:17;;;;;;;4.13;2.88;;;;;;;;;;4943988;28;20077;-80
2021/06/11 22:44:43;;;;;;;4.13;2.75;;;;;;;;;;4954641;28;20035;-81
2021/06/11 22:47:10;;;;;;;3.35;2.90;;;;;;;;;;4951838;28;20061;-81
2021/06/11 22:49:39;;;;;;;4.55;3.03;;;;;;;;;;4947033;28;20138;-81
2021/06/11 22:52:06;;;;;;;6.47;3.20;;;;;;;;;;4950913;28;20095;-82
2021/06/11 22:54:32;;;;;;;5.05;3.33;;;;;;;;;;4952077;28;20059;-81
2021/06/11 22:56:58;;;;;;;4.72;2.90;;;;;;;;;;4952837;28;20178;-81
2021/06/11 22:59:28;;;;;;;5.38;3.35;;;;;;;;;;4955507;28;20090;-80
2021/06/11 23:01:54;;;;;;;3.95;2.95;;;;;;;;;;4955264;28;20055;-79
2021/06/11 23:04:21;;;;;;;5.35;3.13;;;;;;;;;;4950166;28;20065;-80
2021/06/11 23:06:47;;;;;;;5.55;3.00;;;;;;;;;;4950597;28;20059;-80
2021/06/11 23:09:13;;;;;;;5.60;3.05;;;;;;;;;;4955204;28;20058;-81
2021/06/11 23:11:40;;;;;;;5.63;2.90;;;;;;;;;;4949209;28;20071;-81
2021/06/11 23:14:06;;;;;;;8.45;3.30;;;;;;;;;;4947174;28;20063;-81
2021/06/11 23:16:33;;;;;;;4.68;3.33;;;;;;;;;;4950410;28;20047;-80
2021/06/11 23:19:01;;;;;;;4.47;3.00;;;;;;;;;;4941575;28;20055;-80
2021/06/11 23:21:28;;;;;;;4.68;3.45;;;;;;;;;;4947267;28;20078;-80
2021/06/11 23:23:57;;;;;;;4.30;3.45;;;;;;;;;;4950112;28;20063;-79
2021/06/11 23:26:28;;;;;;;4.35;3.10;;;;;;;;;;4949232;28;20577;-80
2021/06/11 23:28:55;;;;;;;3.67;2.65;;;;;;;;;;4945804;28;20103;-79
2021/06/11 23:31:21;;;;;;;5.80;3.20;;;;;;;;;;4946647;28;20075;-81
2021/06/11 23:33:47;;;;;;;5.55;3.15;;;;;;;;;;4929446;28;20071;-80
2021/06/11 23:36:17;;;;;;;5.20;3.22;;;;;;;;;;4932199;28;20051;-80
2021/06/11 23:38:43;;;;;;;4.53;3.03;;;;;;;;;;4935631;28;20060;-80
2021/06/11 23:41:10;;;;;;;4.80;3.33;;;;;;;;;;4954618;28;20062;-80
2021/06/11 23:43:36;;;;;;;4.93;3.20;;;;;;;;;;4947825;28;20074;-81
2021/06/11 23:46:03;;;;;;;5.07;3.45;;;;;;;;;;4948021;28;20163;-81
2021/06/11 23:48:31;;;;;;;4.80;3.30;;;;;;;;;;4958675;28;20505;-80
2021/06/11 23:50:58;;;;;;;4.80;3.55;;;;;;;;;;4950784;28;20153;-80
2021/06/11 23:53:24;;;;;;;4.45;3.17;;;;;;;;;;4932509;28;20089;-81
2021/06/11 23:55:51;;;;;;;4.72;3.53;;;;;;;;;;4955689;28;20059;-81
2021/06/11 23:58:17;;;;;;;6.28;3.30;;;;;;;;;;4954544;28;20031;-81
